KIER

Natchitoches Regional Airport

Natchitoches, Louisiana, USA
METAR KIER 181515Z AUTO 00000KT 10SM CLR M03/M07 A3063 RMK AO2 T10341066
Observed Flight Rules
Jan-18 @ 15:15 UTC (21 minutes ago) Visual Flight Rules
Wind Visibility Clouds
Calm 10 miles
  • Clear skies
Temperatures Readings
Current -3°C / 27°F
Dewpoint -7°C / 19°F
Humidity 74%
Altimeter 30.63" Hg
Pressure 1037 hPa
Elevation 37
METAR KIER 181515Z AUTO 00000KT 10SM CLR M03/M07 A3063 RMK AO2 T10341066
Observed Flight Rules
Jan-18 @ 15:15 UTC
(21 minutes ago)
VFR
Wind Visibility
Calm 10 miles
Clouds
  • Clear skies
Temperature Dewpoint
-3°C / 27°F -7°C / 19°F
Humidity Altimeter Pressure
74% 30.63" Hg 1037 hPa